Weerstation
Sluispark-LeuvenLeuven-Sluispark

Weerstation
Wilsele-PutkapelWilsele-Putkapel



Nabijgelegen vliegvelden - METAR rapporten

   
EBBE - Wilsele bij Leuven
Gewijzigd: 21-09-2023 17:25
Wat regen mogelijk, Bewolking    Wind: Zuiden 14.8 km/h
Wat regen mogelijk, Bewolking
Wind: Wind: Zuiden 14.8 km/h
Temperatuur: 15°C
Dauwpunt: 14°C
Vochtigheid: 94%
Barometer: 996 hPa
Bewolking: Bewolking
Zicht: meer dan 10 km
Bewolking: Licht bewolkt 2438.4 m,
Bewolking 2895.6 m
EBBE 211525Z AUTO 19008KT 9999 -RA FEW080/// OVC095/// 15/14 Q0996 BLU
EBAW - Antwerp
Gewijzigd: 21-09-2023 17:20
Kleine buien, Regen, Licht bewolkt    Wind: ZO 9.3 km/h
Kleine buien, Regen, Licht bewolkt
Wind: Wind: ZO 9.3 km/h
Temperatuur: 15°C
Dauwpunt: 14°C
Vochtigheid: 94%
Barometer: 996 hPa
Bewolking: Licht bewolkt
Zicht: meer dan 10 km
Bewolking: Licht bewolkt 182.9 m
EBAW 211520Z 13005KT 9999 -SHRA FEW006 15/14 Q0996 NOSIG
EBLG - Li├Ęge
Gewijzigd: 21-09-2023 17:20
Wat regen mogelijk, Licht bewolkt    Wind: ZW 27.8 km/h
Wat regen mogelijk, Licht bewolkt
Wind: Wind: ZW 27.8 km/h
Temperatuur: 15°C
Dauwpunt: 14°C
Vochtigheid: 94%
Barometer: 997 hPa
Bewolking: Licht bewolkt
Zicht: meer dan 10 km
Bewolking: Licht bewolkt 243.8 m,
Licht bewolkt 426.7 m
EBLG 211520Z 23015KT 9999 -RA FEW008 FEW014TCU 15/14 Q0997 RESHRA TEMPO 23015G25KT 2000 SHRA BKN012CB
EBCV - Mons/Bergen
Gewijzigd: 21-09-2023 17:25
   Wind: Zuiden 13 km/h
Wind: Wind: Zuiden 13 km/h
Temperatuur: 15°C
Dauwpunt: 14°C
Vochtigheid: 94%
Barometer: 996 hPa
Zicht: meer dan 10 km
EBCV 211525Z AUTO 19007KT 9999 /// 15/14 Q0996 BLU
EHBK - Maastricht
Gewijzigd: 21-09-2023 17:25
Bewolking    Wind: ZO 11.1 km/h
Bewolking
Wind: Wind: ZO 11.1 km/h
Temperatuur: 17°C
Dauwpunt: 16°C
Vochtigheid: 94%
Barometer: 996 hPa
Bewolking: Bewolking
Zicht: meer dan 10 km
Bewolking: Gedeeltelijk bewolkt 731.5 m,
Grotendeels bewolkt 853.4 m,
Bewolking 975.4 m
EHBK 211525Z AUTO 14006KT 100V180 9999 SCT024/// BKN028/// OVC032/// 17/16 Q0996 TEMPO 6000 SHRA FEW015CB
ELLX - Luxemburg
Gewijzigd: 21-09-2023 17:20
Regenbuien, Regen, Grotendeels bewolkt    Wind: WZW 29.6 km/h<br />Gust to 29.6 km/h
Regenbuien, Regen, Grotendeels bewolkt
Wind: Wind: WZW 29.6 km/h
Gust to 29.6 km/h
Temperatuur: 17°C
Dauwpunt: 16°C
Vochtigheid: 94%
Barometer: 998 hPa
Bewolking: Grotendeels bewolkt
Zicht: 3 km
Bewolking: Gedeeltelijk bewolkt 762 m,
Grotendeels bewolkt 1219.2 m
ELLX 211520Z 24016G28KT 3000 SHRA SCT025CB BKN040 17/16 Q0998 RESHRA TEMPO 21020G30KT 2000 SHRA SCT025CB
EBOS - Oostende
Gewijzigd: 21-09-2023 17:20
Wat regen mogelijk, Motregen, Grotendeels bewolkt    Wind: Noorden 7.4 km/h
Wat regen mogelijk, Motregen, Grotendeels bewolkt
Wind: Wind: Noorden 7.4 km/h
Temperatuur: 12°C
Dauwpunt: 11°C
Vochtigheid: 94%
Barometer: 996 hPa
Bewolking: Grotendeels bewolkt
Zicht: 7 km
Bewolking: Licht bewolkt 182.9 m,
Gedeeltelijk bewolkt 823 m,
Grotendeels bewolkt 1371.6 m
EBOS 211520Z 36004KT 340V040 7000 -RADZ FEW006 SCT027 BKN045 12/11 Q0996 NOSIG
  

Script ontwikkeld door  Saratoga-weather.org Aangepast voor de template door  Weerstation Leuven

U vindt ons ook hier:

UK Metoffice

WeatherCloud

European Weather Network

Weather Underground

Benelux Weather Network

AWEKAS

WeatherlinkIP

HAMweather, WeatherForYou, PWS Weather

Het Weer Aktueel

Apparatuur in gebruik:

Weer-station
Davis VP2 weatherstation

Weer-programma
Meteobridge

Weer-computer
D-Link DIR-505

Davis VP2 weatherstation

Meteobridge

D-Link DIR-505